sensor_id;sensor_type;location;lat;lon;timestamp;P1;durP1;ratioP1;P2;durP2;ratioP2
39890;SDS011;25564;53.312;9.790;2023-02-01T00:01:09;21.97;;;3.83;;
39890;SDS011;25564;53.312;9.790;2023-02-01T00:03:41;17.50;;;3.90;;
39890;SDS011;25564;53.312;9.790;2023-02-01T00:06:12;12.57;;;4.27;;
39890;SDS011;25564;53.312;9.790;2023-02-01T00:08:43;21.87;;;4.77;;
39890;SDS011;25564;53.312;9.790;2023-02-01T00:11:15;19.43;;;3.50;;
39890;SDS011;25564;53.312;9.790;2023-02-01T00:13:46;22.63;;;3.73;;
39890;SDS011;25564;53.312;9.790;2023-02-01T00:16:18;28.60;;;5.03;;
39890;SDS011;25564;53.312;9.790;2023-02-01T00:18:59;17.30;;;3.77;;
39890;SDS011;25564;53.312;9.790;2023-02-01T00:21:33;14.27;;;3.50;;
39890;SDS011;25564;53.312;9.790;2023-02-01T00:24:05;18.13;;;4.37;;
39890;SDS011;25564;53.312;9.790;2023-02-01T00:26:41;24.17;;;4.33;;
39890;SDS011;25564;53.312;9.790;2023-02-01T00:29:15;18.97;;;3.83;;
39890;SDS011;25564;53.312;9.790;2023-02-01T00:31:49;29.47;;;5.23;;
39890;SDS011;25564;53.312;9.790;2023-02-01T00:34:21;24.53;;;3.60;;
39890;SDS011;25564;53.312;9.790;2023-02-01T00:36:52;19.70;;;3.47;;
39890;SDS011;25564;53.312;9.790;2023-02-01T00:39:24;14.87;;;2.67;;
39890;SDS011;25564;53.312;9.790;2023-02-01T00:41:55;19.47;;;3.37;;
39890;SDS011;25564;53.312;9.790;2023-02-01T00:44:26;14.00;;;3.53;;
39890;SDS011;25564;53.312;9.790;2023-02-01T00:46:58;22.53;;;4.03;;
39890;SDS011;25564;53.312;9.790;2023-02-01T00:49:29;23.93;;;4.00;;
39890;SDS011;25564;53.312;9.790;2023-02-01T00:52:01;17.20;;;4.03;;
39890;SDS011;25564;53.312;9.790;2023-02-01T00:54:32;15.90;;;4.50;;
39890;SDS011;25564;53.312;9.790;2023-02-01T00:57:04;29.20;;;5.07;;
39890;SDS011;25564;53.312;9.790;2023-02-01T00:59:35;18.83;;;3.53;;
39890;SDS011;25564;53.312;9.790;2023-02-01T01:02:06;10.47;;;3.73;;
39890;SDS011;25564;53.312;9.790;2023-02-01T01:04:38;15.37;;;4.10;;
39890;SDS011;25564;53.312;9.790;2023-02-01T01:07:09;22.60;;;6.07;;
39890;SDS011;25564;53.312;9.790;2023-02-01T01:09:40;12.20;;;3.70;;
39890;SDS011;25564;53.312;9.790;2023-02-01T01:12:12;23.70;;;5.43;;
39890;SDS011;25564;53.312;9.790;2023-02-01T01:14:43;22.17;;;4.40;;
39890;SDS011;25564;53.312;9.790;2023-02-01T01:17:15;17.67;;;3.70;;
39890;SDS011;25564;53.312;9.790;2023-02-01T01:19:47;18.13;;;3.57;;
39890;SDS011;25564;53.312;9.790;2023-02-01T01:22:18;26.57;;;3.77;;
39890;SDS011;25564;53.312;9.790;2023-02-01T01:24:50;19.97;;;4.57;;
39890;SDS011;25564;53.312;9.790;2023-02-01T01:27:21;23.27;;;3.30;;
39890;SDS011;25564;53.312;9.790;2023-02-01T01:29:55;16.50;;;4.20;;
39890;SDS011;25564;53.312;9.790;2023-02-01T01:32:26;19.30;;;3.47;;
39890;SDS011;25564;53.312;9.790;2023-02-01T01:34:57;24.03;;;4.53;;
39890;SDS011;25564;53.312;9.790;2023-02-01T01:37:28;14.57;;;3.20;;
39890;SDS011;25564;53.312;9.790;2023-02-01T01:40:00;15.37;;;3.30;;
39890;SDS011;25564;53.312;9.790;2023-02-01T01:42:36;22.60;;;4.73;;
39890;SDS011;25564;53.312;9.790;2023-02-01T01:45:19;19.27;;;4.07;;
39890;SDS011;25564;53.312;9.790;2023-02-01T01:47:55;21.27;;;4.80;;
39890;SDS011;25564;53.312;9.790;2023-02-01T01:50:31;17.23;;;4.50;;
39890;SDS011;25564;53.312;9.790;2023-02-01T01:53:07;25.90;;;4.97;;
39890;SDS011;25564;53.312;9.790;2023-02-01T01:55:41;13.93;;;3.20;;
39890;SDS011;25564;53.312;9.790;2023-02-01T01:58:16;17.80;;;3.00;;
39890;SDS011;25564;53.312;9.790;2023-02-01T02:00:49;25.17;;;4.00;;
39890;SDS011;25564;53.312;9.790;2023-02-01T02:03:22;20.33;;;4.50;;
39890;SDS011;25564;53.312;9.790;2023-02-01T02:05:57;25.87;;;4.47;;
39890;SDS011;25564;53.312;9.790;2023-02-01T02:08:30;20.97;;;3.70;;
39890;SDS011;25564;53.312;9.790;2023-02-01T02:11:01;15.43;;;3.70;;
39890;SDS011;25564;53.312;9.790;2023-02-01T02:13:37;21.43;;;3.37;;
39890;SDS011;25564;53.312;9.790;2023-02-01T02:16:18;19.30;;;3.80;;
39890;SDS011;25564;53.312;9.790;2023-02-01T02:28:12;14.03;;;3.37;;
39890;SDS011;25564;53.312;9.790;2023-02-01T02:33:58;29.23;;;5.30;;
39890;SDS011;25564;53.312;9.790;2023-02-01T02:36:52;24.23;;;4.33;;
39890;SDS011;25564;53.312;9.790;2023-02-01T02:42:17;27.17;;;5.10;;
39890;SDS011;25564;53.312;9.790;2023-02-01T02:45:25;24.20;;;3.80;;
39890;SDS011;25564;53.312;9.790;2023-02-01T02:48:25;18.43;;;3.93;;
39890;SDS011;25564;53.312;9.790;2023-02-01T02:51:05;14.38;;;5.05;;
39890;SDS011;25564;53.312;9.790;2023-02-01T02:56:56;22.85;;;3.90;;
39890;SDS011;25564;53.312;9.790;2023-02-01T02:59:49;17.50;;;3.43;;
39890;SDS011;25564;53.312;9.790;2023-02-01T03:02:40;13.90;;;3.53;;
39890;SDS011;25564;53.312;9.790;2023-02-01T03:05:35;17.53;;;3.37;;
39890;SDS011;25564;53.312;9.790;2023-02-01T03:08:17;19.23;;;4.03;;
39890;SDS011;25564;53.312;9.790;2023-02-01T03:13:49;24.07;;;3.50;;
39890;SDS011;25564;53.312;9.790;2023-02-01T03:16:33;16.47;;;3.67;;
39890;SDS011;25564;53.312;9.790;2023-02-01T03:19:22;19.23;;;5.07;;
39890;SDS011;25564;53.312;9.790;2023-02-01T03:22:02;25.23;;;3.53;;
39890;SDS011;25564;53.312;9.790;2023-02-01T03:24:55;18.00;;;3.47;;
39890;SDS011;25564;53.312;9.790;2023-02-01T03:27:34;9.13;;;2.80;;
39890;SDS011;25564;53.312;9.790;2023-02-01T03:30:15;8.90;;;2.00;;
39890;SDS011;25564;53.312;9.790;2023-02-01T03:32:54;4.07;;;1.43;;
39890;SDS011;25564;53.312;9.790;2023-02-01T03:35:33;2.33;;;1.00;;
39890;SDS011;25564;53.312;9.790;2023-02-01T03:38:39;6.00;;;1.10;;
39890;SDS011;25564;53.312;9.790;2023-02-01T03:41:28;5.70;;;1.47;;
39890;SDS011;25564;53.312;9.790;2023-02-01T03:44:16;5.93;;;1.20;;
39890;SDS011;25564;53.312;9.790;2023-02-01T03:46:54;3.87;;;1.20;;
39890;SDS011;25564;53.312;9.790;2023-02-01T03:49:40;6.67;;;1.20;;
39890;SDS011;25564;53.312;9.790;2023-02-01T03:52:14;9.33;;;1.40;;
39890;SDS011;25564;53.312;9.790;2023-02-01T03:54:51;4.80;;;0.80;;
39890;SDS011;25564;53.312;9.790;2023-02-01T03:57:25;6.97;;;1.40;;
39890;SDS011;25564;53.312;9.790;2023-02-01T04:00:09;6.37;;;1.83;;
39890;SDS011;25564;53.312;9.790;2023-02-01T04:02:47;8.80;;;1.50;;
39890;SDS011;25564;53.312;9.790;2023-02-01T04:05:20;9.93;;;2.17;;
39890;SDS011;25564;53.312;9.790;2023-02-01T04:07:52;7.90;;;2.20;;
39890;SDS011;25564;53.312;9.790;2023-02-01T04:10:25;7.87;;;2.30;;
39890;SDS011;25564;53.312;9.790;2023-02-01T04:12:58;11.30;;;2.17;;
39890;SDS011;25564;53.312;9.790;2023-02-01T04:15:29;8.03;;;1.70;;
39890;SDS011;25564;53.312;9.790;2023-02-01T04:18:00;10.10;;;1.83;;
39890;SDS011;25564;53.312;9.790;2023-02-01T04:20:32;12.57;;;2.87;;
39890;SDS011;25564;53.312;9.790;2023-02-01T04:23:04;8.87;;;1.87;;
39890;SDS011;25564;53.312;9.790;2023-02-01T04:25:35;3.27;;;1.47;;
39890;SDS011;25564;53.312;9.790;2023-02-01T04:28:06;5.43;;;1.17;;
39890;SDS011;25564;53.312;9.790;2023-02-01T04:30:38;7.50;;;1.37;;
39890;SDS011;25564;53.312;9.790;2023-02-01T04:33:09;1.37;;;0.70;;
39890;SDS011;25564;53.312;9.790;2023-02-01T04:35:44;5.57;;;0.90;;
39890;SDS011;25564;53.312;9.790;2023-02-01T04:38:16;4.07;;;0.80;;
39890;SDS011;25564;53.312;9.790;2023-02-01T04:40:47;2.40;;;0.80;;
39890;SDS011;25564;53.312;9.790;2023-02-01T04:43:19;3.47;;;1.20;;
39890;SDS011;25564;53.312;9.790;2023-02-01T04:45:51;3.37;;;0.80;;
39890;SDS011;25564;53.312;9.790;2023-02-01T04:48:23;4.60;;;0.77;;
39890;SDS011;25564;53.312;9.790;2023-02-01T04:50:55;6.30;;;0.80;;
39890;SDS011;25564;53.312;9.790;2023-02-01T04:53:26;5.30;;;0.83;;
39890;SDS011;25564;53.312;9.790;2023-02-01T04:55:58;9.43;;;1.50;;
39890;SDS011;25564;53.312;9.790;2023-02-01T04:58:29;7.30;;;1.13;;
39890;SDS011;25564;53.312;9.790;2023-02-01T05:01:04;2.30;;;1.03;;
39890;SDS011;25564;53.312;9.790;2023-02-01T05:03:37;3.95;;;1.40;;
39890;SDS011;25564;53.312;9.790;2023-02-01T05:06:08;6.43;;;1.90;;
39890;SDS011;25564;53.312;9.790;2023-02-01T05:08:39;7.13;;;2.23;;
39890;SDS011;25564;53.312;9.790;2023-02-01T05:11:11;3.40;;;1.30;;
39890;SDS011;25564;53.312;9.790;2023-02-01T05:14:02;8.90;;;1.73;;
39890;SDS011;25564;53.312;9.790;2023-02-01T05:16:33;7.13;;;1.77;;
39890;SDS011;25564;53.312;9.790;2023-02-01T05:19:05;5.30;;;1.47;;
39890;SDS011;25564;53.312;9.790;2023-02-01T05:21:36;9.40;;;2.17;;
39890;SDS011;25564;53.312;9.790;2023-02-01T05:24:08;9.17;;;1.67;;
39890;SDS011;25564;53.312;9.790;2023-02-01T05:26:50;7.00;;;1.43;;
39890;SDS011;25564;53.312;9.790;2023-02-01T05:29:22;10.27;;;1.67;;
39890;SDS011;25564;53.312;9.790;2023-02-01T05:31:54;8.33;;;2.00;;
39890;SDS011;25564;53.312;9.790;2023-02-01T05:34:25;5.40;;;1.47;;
39890;SDS011;25564;53.312;9.790;2023-02-01T05:36:56;8.07;;;1.20;;
39890;SDS011;25564;53.312;9.790;2023-02-01T05:39:28;3.33;;;1.23;;
39890;SDS011;25564;53.312;9.790;2023-02-01T05:41:59;5.10;;;1.10;;
39890;SDS011;25564;53.312;9.790;2023-02-01T05:44:31;5.40;;;1.33;;
39890;SDS011;25564;53.312;9.790;2023-02-01T05:47:02;4.83;;;1.00;;
39890;SDS011;25564;53.312;9.790;2023-02-01T05:49:34;5.93;;;1.00;;
39890;SDS011;25564;53.312;9.790;2023-02-01T05:52:05;5.90;;;1.73;;
39890;SDS011;25564;53.312;9.790;2023-02-01T05:54:36;7.93;;;1.33;;
39890;SDS011;25564;53.312;9.790;2023-02-01T05:57:09;6.53;;;1.27;;
39890;SDS011;25564;53.312;9.790;2023-02-01T05:59:40;3.70;;;1.10;;
39890;SDS011;25564;53.312;9.790;2023-02-01T06:02:18;2.70;;;2.27;;
39890;SDS011;25564;53.312;9.790;2023-02-01T06:04:50;9.10;;;1.30;;
39890;SDS011;25564;53.312;9.790;2023-02-01T06:07:22;4.27;;;1.23;;
39890;SDS011;25564;53.312;9.790;2023-02-01T06:09:53;2.73;;;0.80;;
39890;SDS011;25564;53.312;9.790;2023-02-01T06:12:24;5.70;;;1.10;;
39890;SDS011;25564;53.312;9.790;2023-02-01T06:14:59;4.37;;;1.40;;
39890;SDS011;25564;53.312;9.790;2023-02-01T06:17:30;4.37;;;1.10;;
39890;SDS011;25564;53.312;9.790;2023-02-01T06:20:02;4.90;;;1.03;;
39890;SDS011;25564;53.312;9.790;2023-02-01T06:22:34;3.83;;;1.00;;
39890;SDS011;25564;53.312;9.790;2023-02-01T06:25:07;8.43;;;1.53;;
39890;SDS011;25564;53.312;9.790;2023-02-01T06:27:40;8.70;;;2.20;;
39890;SDS011;25564;53.312;9.790;2023-02-01T06:30:11;8.57;;;1.80;;
39890;SDS011;25564;53.312;9.790;2023-02-01T06:32:49;2.07;;;0.90;;
39890;SDS011;25564;53.312;9.790;2023-02-01T06:35:24;4.10;;;1.23;;
39890;SDS011;25564;53.312;9.790;2023-02-01T06:37:57;4.10;;;1.30;;
39890;SDS011;25564;53.312;9.790;2023-02-01T06:40:29;3.73;;;1.03;;
39890;SDS011;25564;53.312;9.790;2023-02-01T06:43:00;6.63;;;1.47;;
39890;SDS011;25564;53.312;9.790;2023-02-01T06:45:31;2.17;;;0.97;;
39890;SDS011;25564;53.312;9.790;2023-02-01T06:48:03;3.67;;;1.07;;
39890;SDS011;25564;53.312;9.790;2023-02-01T06:50:34;5.97;;;1.40;;
39890;SDS011;25564;53.312;9.790;2023-02-01T06:53:06;2.97;;;1.40;;
39890;SDS011;25564;53.312;9.790;2023-02-01T06:55:37;4.47;;;1.20;;
39890;SDS011;25564;53.312;9.790;2023-02-01T06:58:09;9.17;;;1.83;;
39890;SDS011;25564;53.312;9.790;2023-02-01T07:00:40;4.90;;;1.63;;
39890;SDS011;25564;53.312;9.790;2023-02-01T07:03:11;9.40;;;1.30;;
39890;SDS011;25564;53.312;9.790;2023-02-01T07:05:43;6.30;;;1.90;;
39890;SDS011;25564;53.312;9.790;2023-02-01T07:08:14;9.23;;;2.00;;
39890;SDS011;25564;53.312;9.790;2023-02-01T07:10:45;6.10;;;1.97;;
39890;SDS011;25564;53.312;9.790;2023-02-01T07:13:17;11.20;;;2.90;;
39890;SDS011;25564;53.312;9.790;2023-02-01T07:15:48;6.80;;;1.53;;
39890;SDS011;25564;53.312;9.790;2023-02-01T07:18:20;12.53;;;2.60;;
39890;SDS011;25564;53.312;9.790;2023-02-01T07:20:51;15.10;;;3.67;;
39890;SDS011;25564;53.312;9.790;2023-02-01T07:23:22;12.57;;;1.93;;
39890;SDS011;25564;53.312;9.790;2023-02-01T07:25:55;13.00;;;3.63;;
39890;SDS011;25564;53.312;9.790;2023-02-01T07:28:31;10.35;;;2.90;;
39890;SDS011;25564;53.312;9.790;2023-02-01T07:31:06;17.47;;;3.23;;
39890;SDS011;25564;53.312;9.790;2023-02-01T07:33:39;12.50;;;2.43;;
39890;SDS011;25564;53.312;9.790;2023-02-01T07:36:11;15.23;;;3.90;;
39890;SDS011;25564;53.312;9.790;2023-02-01T07:38:44;16.07;;;3.30;;
39890;SDS011;25564;53.312;9.790;2023-02-01T07:41:18;8.60;;;2.30;;
39890;SDS011;25564;53.312;9.790;2023-02-01T07:43:51;8.13;;;2.50;;
39890;SDS011;25564;53.312;9.790;2023-02-01T07:46:23;9.50;;;2.70;;
39890;SDS011;25564;53.312;9.790;2023-02-01T07:48:55;11.67;;;2.13;;
39890;SDS011;25564;53.312;9.790;2023-02-01T07:51:26;12.80;;;2.27;;
39890;SDS011;25564;53.312;9.790;2023-02-01T07:53:57;8.60;;;1.73;;
39890;SDS011;25564;53.312;9.790;2023-02-01T07:56:29;13.40;;;2.67;;
39890;SDS011;25564;53.312;9.790;2023-02-01T07:59:00;16.87;;;2.40;;
39890;SDS011;25564;53.312;9.790;2023-02-01T08:01:32;14.23;;;2.63;;
39890;SDS011;25564;53.312;9.790;2023-02-01T08:04:04;10.67;;;3.17;;
39890;SDS011;25564;53.312;9.790;2023-02-01T08:06:35;17.70;;;3.53;;
39890;SDS011;25564;53.312;9.790;2023-02-01T08:09:07;21.10;;;3.13;;
39890;SDS011;25564;53.312;9.790;2023-02-01T08:11:39;13.27;;;2.83;;
39890;SDS011;25564;53.312;9.790;2023-02-01T08:14:10;10.47;;;3.53;;
39890;SDS011;25564;53.312;9.790;2023-02-01T08:16:41;17.23;;;4.47;;
39890;SDS011;25564;53.312;9.790;2023-02-01T08:19:13;11.33;;;3.73;;
39890;SDS011;25564;53.312;9.790;2023-02-01T08:21:44;17.83;;;3.10;;
39890;SDS011;25564;53.312;9.790;2023-02-01T08:24:15;21.43;;;4.00;;
39890;SDS011;25564;53.312;9.790;2023-02-01T08:26:47;21.83;;;3.57;;
39890;SDS011;25564;53.312;9.790;2023-02-01T08:29:18;19.20;;;3.30;;
39890;SDS011;25564;53.312;9.790;2023-02-01T08:31:50;21.20;;;3.40;;
39890;SDS011;25564;53.312;9.790;2023-02-01T08:34:21;10.87;;;3.20;;
39890;SDS011;25564;53.312;9.790;2023-02-01T08:36:53;11.87;;;2.43;;
39890;SDS011;25564;53.312;9.790;2023-02-01T08:39:31;17.13;;;3.20;;
39890;SDS011;25564;53.312;9.790;2023-02-01T08:42:02;14.23;;;2.83;;
39890;SDS011;25564;53.312;9.790;2023-02-01T08:44:52;18.47;;;3.20;;
39890;SDS011;25564;53.312;9.790;2023-02-01T08:47:24;17.13;;;3.00;;
39890;SDS011;25564;53.312;9.790;2023-02-01T08:49:55;20.37;;;4.00;;
39890;SDS011;25564;53.312;9.790;2023-02-01T08:52:26;15.50;;;4.20;;
39890;SDS011;25564;53.312;9.790;2023-02-01T08:54:58;18.77;;;4.60;;
39890;SDS011;25564;53.312;9.790;2023-02-01T08:57:29;15.47;;;3.17;;
39890;SDS011;25564;53.312;9.790;2023-02-01T09:00:02;21.33;;;3.50;;
39890;SDS011;25564;53.312;9.790;2023-02-01T09:02:36;11.70;;;2.90;;
39890;SDS011;25564;53.312;9.790;2023-02-01T09:05:07;8.70;;;2.33;;
39890;SDS011;25564;53.312;9.790;2023-02-01T09:07:39;20.07;;;3.70;;
39890;SDS011;25564;53.312;9.790;2023-02-01T09:10:10;26.70;;;3.17;;
39890;SDS011;25564;53.312;9.790;2023-02-01T09:12:42;24.53;;;3.27;;
39890;SDS011;25564;53.312;9.790;2023-02-01T09:15:13;21.47;;;4.57;;
39890;SDS011;25564;53.312;9.790;2023-02-01T09:17:45;18.73;;;4.33;;
39890;SDS011;25564;53.312;9.790;2023-02-01T09:20:16;23.43;;;3.20;;
39890;SDS011;25564;53.312;9.790;2023-02-01T09:22:50;14.93;;;3.30;;
39890;SDS011;25564;53.312;9.790;2023-02-01T09:25:23;11.20;;;3.20;;
39890;SDS011;25564;53.312;9.790;2023-02-01T09:27:54;14.47;;;3.23;;
39890;SDS011;25564;53.312;9.790;2023-02-01T09:30:25;14.97;;;3.00;;
39890;SDS011;25564;53.312;9.790;2023-02-01T09:32:59;22.43;;;3.00;;
39890;SDS011;25564;53.312;9.790;2023-02-01T09:35:30;19.80;;;3.47;;
39890;SDS011;25564;53.312;9.790;2023-02-01T09:38:02;16.17;;;3.87;;
39890;SDS011;25564;53.312;9.790;2023-02-01T09:40:33;16.67;;;3.43;;
39890;SDS011;25564;53.312;9.790;2023-02-01T09:43:23;13.83;;;3.63;;
39890;SDS011;25564;53.312;9.790;2023-02-01T09:48:39;24.00;;;3.53;;
39890;SDS011;25564;53.312;9.790;2023-02-01T09:51:28;20.07;;;3.83;;
39890;SDS011;25564;53.312;9.790;2023-02-01T09:54:04;8.53;;;2.50;;
39890;SDS011;25564;53.312;9.790;2023-02-01T09:56:47;17.10;;;3.57;;
39890;SDS011;25564;53.312;9.790;2023-02-01T09:59:29;15.70;;;2.90;;
39890;SDS011;25564;53.312;9.790;2023-02-01T10:02:11;10.60;;;3.10;;
39890;SDS011;25564;53.312;9.790;2023-02-01T10:04:46;23.90;;;3.97;;
39890;SDS011;25564;53.312;9.790;2023-02-01T10:07:25;17.30;;;3.33;;
39890;SDS011;25564;53.312;9.790;2023-02-01T10:15:40;17.83;;;3.10;;
39890;SDS011;25564;53.312;9.790;2023-02-01T10:24:30;18.60;;;3.80;;
39890;SDS011;25564;53.312;9.790;2023-02-01T10:27:09;14.33;;;2.93;;
39890;SDS011;25564;53.312;9.790;2023-02-01T10:29:45;19.17;;;3.60;;
39890;SDS011;25564;53.312;9.790;2023-02-01T10:32:22;11.00;;;2.60;;
39890;SDS011;25564;53.312;9.790;2023-02-01T10:35:00;12.67;;;2.93;;
39890;SDS011;25564;53.312;9.790;2023-02-01T10:37:43;10.83;;;2.83;;
39890;SDS011;25564;53.312;9.790;2023-02-01T10:40:19;15.40;;;3.95;;
39890;SDS011;25564;53.312;9.790;2023-02-01T10:42:57;17.90;;;2.90;;
39890;SDS011;25564;53.312;9.790;2023-02-01T10:45:33;17.35;;;2.83;;
39890;SDS011;25564;53.312;9.790;2023-02-01T10:48:04;22.67;;;2.93;;
39890;SDS011;25564;53.312;9.790;2023-02-01T10:50:41;13.00;;;2.83;;
39890;SDS011;25564;53.312;9.790;2023-02-01T10:56:13;13.80;;;3.53;;
39890;SDS011;25564;53.312;9.790;2023-02-01T10:58:45;13.07;;;3.10;;
39890;SDS011;25564;53.312;9.790;2023-02-01T11:01:22;11.20;;;3.30;;
39890;SDS011;25564;53.312;9.790;2023-02-01T11:04:00;12.03;;;3.03;;
39890;SDS011;25564;53.312;9.790;2023-02-01T11:06:34;9.40;;;2.73;;
39890;SDS011;25564;53.312;9.790;2023-02-01T11:14:27;14.83;;;2.60;;
39890;SDS011;25564;53.312;9.790;2023-02-01T11:19:46;11.37;;;2.93;;
39890;SDS011;25564;53.312;9.790;2023-02-01T11:22:18;15.37;;;2.67;;
39890;SDS011;25564;53.312;9.790;2023-02-01T11:24:49;10.90;;;2.53;;
39890;SDS011;25564;53.312;9.790;2023-02-01T11:27:21;15.67;;;3.10;;
39890;SDS011;25564;53.312;9.790;2023-02-01T11:29:59;12.10;;;2.73;;
39890;SDS011;25564;53.312;9.790;2023-02-01T11:32:33;17.80;;;3.50;;
39890;SDS011;25564;53.312;9.790;2023-02-01T11:35:05;11.07;;;3.03;;
39890;SDS011;25564;53.312;9.790;2023-02-01T11:37:38;14.73;;;3.30;;
39890;SDS011;25564;53.312;9.790;2023-02-01T11:42:55;11.23;;;3.03;;
39890;SDS011;25564;53.312;9.790;2023-02-01T11:45:31;16.63;;;3.33;;
39890;SDS011;25564;53.312;9.790;2023-02-01T11:48:09;18.73;;;2.70;;
39890;SDS011;25564;53.312;9.790;2023-02-01T11:54:07;12.57;;;2.70;;
39890;SDS011;25564;53.312;9.790;2023-02-01T11:56:47;9.27;;;2.33;;
39890;SDS011;25564;53.312;9.790;2023-02-01T12:20:34;2.40;;;0.50;;
39890;SDS011;25564;53.312;9.790;2023-02-01T12:29:14;6.07;;;1.23;;
39890;SDS011;25564;53.312;9.790;2023-02-01T12:32:06;0.83;;;0.50;;
39890;SDS011;25564;53.312;9.790;2023-02-01T12:43:47;1.90;;;0.60;;
39890;SDS011;25564;53.312;9.790;2023-02-01T12:46:31;1.00;;;0.30;;
39890;SDS011;25564;53.312;9.790;2023-02-01T12:49:17;0.90;;;0.50;;
39890;SDS011;25564;53.312;9.790;2023-02-01T12:52:00;0.47;;;0.27;;
39890;SDS011;25564;53.312;9.790;2023-02-01T12:57:15;2.23;;;1.00;;
39890;SDS011;25564;53.312;9.790;2023-02-01T13:00:00;1.10;;;0.60;;
39890;SDS011;25564;53.312;9.790;2023-02-01T13:05:45;0.60;;;0.43;;
39890;SDS011;25564;53.312;9.790;2023-02-01T13:08:24;0.53;;;0.50;;
39890;SDS011;25564;53.312;9.790;2023-02-01T13:11:00;0.60;;;0.37;;
39890;SDS011;25564;53.312;9.790;2023-02-01T13:13:43;1.90;;;0.90;;
39890;SDS011;25564;53.312;9.790;2023-02-01T13:16:21;2.53;;;0.80;;
39890;SDS011;25564;53.312;9.790;2023-02-01T13:19:02;1.43;;;1.27;;
39890;SDS011;25564;53.312;9.790;2023-02-01T13:21:42;1.40;;;0.93;;
39890;SDS011;25564;53.312;9.790;2023-02-01T13:24:36;0.93;;;0.80;;
39890;SDS011;25564;53.312;9.790;2023-02-01T13:27:18;1.70;;;0.67;;
39890;SDS011;25564;53.312;9.790;2023-02-01T13:41:55;2.60;;;0.60;;
39890;SDS011;25564;53.312;9.790;2023-02-01T13:44:39;0.70;;;0.57;;
39890;SDS011;25564;53.312;9.790;2023-02-01T13:47:34;0.80;;;0.50;;
39890;SDS011;25564;53.312;9.790;2023-02-01T13:52:53;4.67;;;0.77;;
39890;SDS011;25564;53.312;9.790;2023-02-01T13:55:31;0.80;;;0.60;;
39890;SDS011;25564;53.312;9.790;2023-02-01T13:58:10;1.23;;;0.70;;
39890;SDS011;25564;53.312;9.790;2023-02-01T14:00:44;2.77;;;0.60;;
39890;SDS011;25564;53.312;9.790;2023-02-01T14:03:20;1.73;;;0.70;;
39890;SDS011;25564;53.312;9.790;2023-02-01T14:05:54;3.73;;;0.70;;
39890;SDS011;25564;53.312;9.790;2023-02-01T14:08:41;3.80;;;1.07;;
39890;SDS011;25564;53.312;9.790;2023-02-01T14:11:33;0.80;;;0.63;;
39890;SDS011;25564;53.312;9.790;2023-02-01T14:19:26;0.97;;;0.57;;
39890;SDS011;25564;53.312;9.790;2023-02-01T14:24:55;5.80;;;1.23;;
39890;SDS011;25564;53.312;9.790;2023-02-01T14:27:29;4.07;;;0.60;;
39890;SDS011;25564;53.312;9.790;2023-02-01T14:30:06;2.47;;;1.00;;
39890;SDS011;25564;53.312;9.790;2023-02-01T14:32:45;2.27;;;0.83;;
39890;SDS011;25564;53.312;9.790;2023-02-01T14:35:21;6.50;;;1.93;;
39890;SDS011;25564;53.312;9.790;2023-02-01T14:38:00;3.80;;;1.37;;
39890;SDS011;25564;53.312;9.790;2023-02-01T14:40:35;2.57;;;0.80;;
39890;SDS011;25564;53.312;9.790;2023-02-01T14:43:07;9.30;;;1.47;;
39890;SDS011;25564;53.312;9.790;2023-02-01T14:45:59;11.17;;;1.83;;
39890;SDS011;25564;53.312;9.790;2023-02-01T14:51:03;3.47;;;0.80;;
39890;SDS011;25564;53.312;9.790;2023-02-01T14:53:34;0.37;;;0.33;;
39890;SDS011;25564;53.312;9.790;2023-02-01T14:56:12;6.97;;;1.73;;
39890;SDS011;25564;53.312;9.790;2023-02-01T14:58:48;2.87;;;1.00;;
39890;SDS011;25564;53.312;9.790;2023-02-01T15:01:33;3.10;;;0.60;;
39890;SDS011;25564;53.312;9.790;2023-02-01T15:04:09;9.17;;;1.77;;
39890;SDS011;25564;53.312;9.790;2023-02-01T15:06:53;7.20;;;1.87;;
39890;SDS011;25564;53.312;9.790;2023-02-01T15:09:31;2.97;;;0.80;;
39890;SDS011;25564;53.312;9.790;2023-02-01T15:14:47;1.77;;;1.10;;
39890;SDS011;25564;53.312;9.790;2023-02-01T15:17:33;9.00;;;1.37;;
39890;SDS011;25564;53.312;9.790;2023-02-01T15:20:12;8.27;;;1.30;;
39890;SDS011;25564;53.312;9.790;2023-02-01T15:22:59;12.53;;;1.70;;
39890;SDS011;25564;53.312;9.790;2023-02-01T15:25:36;6.72;;;1.15;;
39890;SDS011;25564;53.312;9.790;2023-02-01T15:28:13;5.03;;;1.47;;
39890;SDS011;25564;53.312;9.790;2023-02-01T15:33:31;3.07;;;1.23;;
39890;SDS011;25564;53.312;9.790;2023-02-01T15:36:11;4.83;;;2.40;;
39890;SDS011;25564;53.312;9.790;2023-02-01T15:38:49;5.23;;;1.67;;
39890;SDS011;25564;53.312;9.790;2023-02-01T15:42:18;11.48;;;1.85;;
39890;SDS011;25564;53.312;9.790;2023-02-01T15:44:50;14.90;;;2.60;;
39890;SDS011;25564;53.312;9.790;2023-02-01T15:47:26;10.90;;;2.20;;
39890;SDS011;25564;53.312;9.790;2023-02-01T15:50:00;6.73;;;1.90;;
39890;SDS011;25564;53.312;9.790;2023-02-01T15:52:36;4.40;;;2.23;;
39890;SDS011;25564;53.312;9.790;2023-02-01T15:55:23;7.43;;;1.80;;
39890;SDS011;25564;53.312;9.790;2023-02-01T16:01:04;10.87;;;2.10;;
39890;SDS011;25564;53.312;9.790;2023-02-01T16:03:39;9.53;;;1.90;;
39890;SDS011;25564;53.312;9.790;2023-02-01T16:09:05;16.57;;;2.57;;
39890;SDS011;25564;53.312;9.790;2023-02-01T16:11:53;16.87;;;2.50;;
39890;SDS011;25564;53.312;9.790;2023-02-01T16:14:25;18.20;;;2.67;;
39890;SDS011;25564;53.312;9.790;2023-02-01T16:16:57;15.27;;;2.73;;
39890;SDS011;25564;53.312;9.790;2023-02-01T16:19:29;12.77;;;2.20;;
39890;SDS011;25564;53.312;9.790;2023-02-01T16:22:01;12.27;;;2.83;;
39890;SDS011;25564;53.312;9.790;2023-02-01T16:24:32;13.10;;;2.00;;
39890;SDS011;25564;53.312;9.790;2023-02-01T16:27:04;15.60;;;2.80;;
39890;SDS011;25564;53.312;9.790;2023-02-01T16:29:38;14.83;;;2.87;;
39890;SDS011;25564;53.312;9.790;2023-02-01T16:32:15;18.63;;;3.60;;
39890;SDS011;25564;53.312;9.790;2023-02-01T16:34:49;14.70;;;3.03;;
39890;SDS011;25564;53.312;9.790;2023-02-01T16:37:21;16.80;;;4.10;;
39890;SDS011;25564;53.312;9.790;2023-02-01T16:39:55;16.87;;;2.63;;
39890;SDS011;25564;53.312;9.790;2023-02-01T16:42:27;15.20;;;3.10;;
39890;SDS011;25564;53.312;9.790;2023-02-01T16:45:01;18.60;;;3.93;;
39890;SDS011;25564;53.312;9.790;2023-02-01T16:47:33;14.30;;;3.37;;
39890;SDS011;25564;53.312;9.790;2023-02-01T16:50:04;18.70;;;4.27;;
39890;SDS011;25564;53.312;9.790;2023-02-01T16:52:54;11.87;;;3.37;;
39890;SDS011;25564;53.312;9.790;2023-02-01T16:55:25;18.60;;;3.13;;
39890;SDS011;25564;53.312;9.790;2023-02-01T16:57:57;16.50;;;2.67;;
39890;SDS011;25564;53.312;9.790;2023-02-01T17:00:28;16.73;;;4.07;;
39890;SDS011;25564;53.312;9.790;2023-02-01T17:03:02;16.13;;;3.23;;
39890;SDS011;25564;53.312;9.790;2023-02-01T17:05:33;21.53;;;3.80;;
39890;SDS011;25564;53.312;9.790;2023-02-01T17:08:05;21.17;;;3.43;;
39890;SDS011;25564;53.312;9.790;2023-02-01T17:10:39;14.30;;;3.87;;
39890;SDS011;25564;53.312;9.790;2023-02-01T17:13:12;16.97;;;3.00;;
39890;SDS011;25564;53.312;9.790;2023-02-01T17:15:49;16.53;;;3.97;;
39890;SDS011;25564;53.312;9.790;2023-02-01T17:18:23;19.50;;;4.07;;
39890;SDS011;25564;53.312;9.790;2023-02-01T17:20:57;15.20;;;3.23;;
39890;SDS011;25564;53.312;9.790;2023-02-01T17:23:29;15.40;;;2.90;;
39890;SDS011;25564;53.312;9.790;2023-02-01T17:26:02;12.33;;;3.27;;
39890;SDS011;25564;53.312;9.790;2023-02-01T17:28:33;13.70;;;2.57;;
39890;SDS011;25564;53.312;9.790;2023-02-01T17:31:06;15.33;;;2.67;;
39890;SDS011;25564;53.312;9.790;2023-02-01T17:33:39;15.07;;;3.30;;
39890;SDS011;25564;53.312;9.790;2023-02-01T17:36:12;11.03;;;3.00;;
39890;SDS011;25564;53.312;9.790;2023-02-01T17:38:45;15.07;;;3.20;;
39890;SDS011;25564;53.312;9.790;2023-02-01T17:41:30;15.27;;;2.40;;